sensor_id;sensor_type;location;lat;lon;timestamp;P1;durP1;ratioP1;P2;durP2;ratioP2
5414;SDS011;2730;51.512;7.504;2023-12-07T00:02:09;45.67;;;15.02;;
5414;SDS011;2730;51.512;7.504;2023-12-07T00:04:37;44.53;;;15.82;;
5414;SDS011;2730;51.512;7.504;2023-12-07T00:07:05;42.97;;;14.18;;
5414;SDS011;2730;51.512;7.504;2023-12-07T00:09:32;44.55;;;14.90;;
5414;SDS011;2730;51.512;7.504;2023-12-07T00:11:58;48.05;;;17.58;;
5414;SDS011;2730;51.512;7.504;2023-12-07T00:14:25;44.30;;;16.77;;
5414;SDS011;2730;51.512;7.504;2023-12-07T00:16:52;39.30;;;16.70;;
5414;SDS011;2730;51.512;7.504;2023-12-07T00:19:19;38.90;;;15.13;;
5414;SDS011;2730;51.512;7.504;2023-12-07T00:21:45;42.40;;;15.55;;
5414;SDS011;2730;51.512;7.504;2023-12-07T00:24:14;50.65;;;15.63;;
5414;SDS011;2730;51.512;7.504;2023-12-07T00:26:40;52.75;;;15.60;;
5414;SDS011;2730;51.512;7.504;2023-12-07T00:29:07;43.35;;;14.88;;
5414;SDS011;2730;51.512;7.504;2023-12-07T00:31:34;48.95;;;15.50;;
5414;SDS011;2730;51.512;7.504;2023-12-07T00:34:00;48.25;;;15.13;;
5414;SDS011;2730;51.512;7.504;2023-12-07T00:36:27;41.22;;;15.80;;
5414;SDS011;2730;51.512;7.504;2023-12-07T00:38:54;36.13;;;13.88;;
5414;SDS011;2730;51.512;7.504;2023-12-07T00:41:23;43.75;;;15.20;;
5414;SDS011;2730;51.512;7.504;2023-12-07T00:43:49;49.92;;;15.90;;
5414;SDS011;2730;51.512;7.504;2023-12-07T00:46:16;42.92;;;16.00;;
5414;SDS011;2730;51.512;7.504;2023-12-07T00:48:43;44.20;;;14.38;;
5414;SDS011;2730;51.512;7.504;2023-12-07T00:51:09;37.10;;;12.80;;
5414;SDS011;2730;51.512;7.504;2023-12-07T00:53:36;56.22;;;15.48;;
5414;SDS011;2730;51.512;7.504;2023-12-07T00:56:03;41.92;;;14.93;;
5414;SDS011;2730;51.512;7.504;2023-12-07T00:58:32;37.25;;;15.90;;
5414;SDS011;2730;51.512;7.504;2023-12-07T01:00:58;48.17;;;14.35;;
5414;SDS011;2730;51.512;7.504;2023-12-07T01:03:26;45.40;;;15.23;;
5414;SDS011;2730;51.512;7.504;2023-12-07T01:05:52;45.80;;;16.45;;
5414;SDS011;2730;51.512;7.504;2023-12-07T01:08:19;50.33;;;16.08;;
5414;SDS011;2730;51.512;7.504;2023-12-07T01:10:46;45.80;;;15.95;;
5414;SDS011;2730;51.512;7.504;2023-12-07T01:13:13;50.13;;;16.98;;
5414;SDS011;2730;51.512;7.504;2023-12-07T01:15:41;45.10;;;15.85;;
5414;SDS011;2730;51.512;7.504;2023-12-07T01:18:08;39.13;;;15.20;;
5414;SDS011;2730;51.512;7.504;2023-12-07T01:20:35;55.13;;;15.30;;
5414;SDS011;2730;51.512;7.504;2023-12-07T01:23:01;50.92;;;15.65;;
5414;SDS011;2730;51.512;7.504;2023-12-07T01:25:28;51.20;;;17.77;;
5414;SDS011;2730;51.512;7.504;2023-12-07T01:27:55;47.45;;;16.75;;
5414;SDS011;2730;51.512;7.504;2023-12-07T01:30:22;45.22;;;14.85;;
5414;SDS011;2730;51.512;7.504;2023-12-07T01:32:50;44.40;;;13.57;;
5414;SDS011;2730;51.512;7.504;2023-12-07T01:35:17;46.95;;;15.50;;
5414;SDS011;2730;51.512;7.504;2023-12-07T01:37:43;48.20;;;15.43;;
5414;SDS011;2730;51.512;7.504;2023-12-07T01:40:10;48.70;;;16.23;;
5414;SDS011;2730;51.512;7.504;2023-12-07T01:42:37;41.20;;;15.35;;
5414;SDS011;2730;51.512;7.504;2023-12-07T01:45:05;44.80;;;15.32;;
5414;SDS011;2730;51.512;7.504;2023-12-07T01:47:32;39.95;;;14.95;;
5414;SDS011;2730;51.512;7.504;2023-12-07T01:50:02;41.65;;;14.38;;
5414;SDS011;2730;51.512;7.504;2023-12-07T01:52:31;44.13;;;14.68;;
5414;SDS011;2730;51.512;7.504;2023-12-07T01:54:59;43.10;;;14.75;;
5414;SDS011;2730;51.512;7.504;2023-12-07T01:57:26;44.20;;;14.25;;
5414;SDS011;2730;51.512;7.504;2023-12-07T01:59:53;41.83;;;13.93;;
5414;SDS011;2730;51.512;7.504;2023-12-07T02:02:20;35.35;;;14.07;;
5414;SDS011;2730;51.512;7.504;2023-12-07T02:04:47;57.67;;;18.13;;
5414;SDS011;2730;51.512;7.504;2023-12-07T02:07:15;47.92;;;14.63;;
5414;SDS011;2730;51.512;7.504;2023-12-07T02:09:43;53.85;;;15.20;;
5414;SDS011;2730;51.512;7.504;2023-12-07T02:12:09;45.28;;;14.93;;
5414;SDS011;2730;51.512;7.504;2023-12-07T02:14:36;43.30;;;15.82;;
5414;SDS011;2730;51.512;7.504;2023-12-07T02:17:09;34.20;;;14.80;;
5414;SDS011;2730;51.512;7.504;2023-12-07T02:19:47;54.20;;;14.35;;
5414;SDS011;2730;51.512;7.504;2023-12-07T02:22:25;46.17;;;14.90;;
5414;SDS011;2730;51.512;7.504;2023-12-07T02:25:00;44.25;;;14.48;;
5414;SDS011;2730;51.512;7.504;2023-12-07T02:27:36;42.70;;;15.25;;
5414;SDS011;2730;51.512;7.504;2023-12-07T02:30:04;44.85;;;15.80;;
5414;SDS011;2730;51.512;7.504;2023-12-07T02:32:31;45.13;;;15.55;;
5414;SDS011;2730;51.512;7.504;2023-12-07T02:34:59;42.75;;;14.80;;
5414;SDS011;2730;51.512;7.504;2023-12-07T02:37:27;37.33;;;13.35;;
5414;SDS011;2730;51.512;7.504;2023-12-07T02:39:55;41.50;;;15.02;;
5414;SDS011;2730;51.512;7.504;2023-12-07T02:42:23;40.22;;;13.23;;
5414;SDS011;2730;51.512;7.504;2023-12-07T02:44:53;40.10;;;14.02;;
5414;SDS011;2730;51.512;7.504;2023-12-07T02:47:20;48.80;;;14.65;;
5414;SDS011;2730;51.512;7.504;2023-12-07T02:49:47;33.33;;;12.38;;
5414;SDS011;2730;51.512;7.504;2023-12-07T02:52:14;33.25;;;12.30;;
5414;SDS011;2730;51.512;7.504;2023-12-07T02:54:41;36.97;;;12.63;;
5414;SDS011;2730;51.512;7.504;2023-12-07T02:57:07;28.48;;;12.20;;
5414;SDS011;2730;51.512;7.504;2023-12-07T02:59:34;41.55;;;13.90;;
5414;SDS011;2730;51.512;7.504;2023-12-07T03:02:02;41.08;;;14.05;;
5414;SDS011;2730;51.512;7.504;2023-12-07T03:04:29;37.03;;;12.18;;
5414;SDS011;2730;51.512;7.504;2023-12-07T03:06:56;39.47;;;12.55;;
5414;SDS011;2730;51.512;7.504;2023-12-07T03:09:23;36.05;;;13.02;;
5414;SDS011;2730;51.512;7.504;2023-12-07T03:11:50;37.80;;;12.82;;
5414;SDS011;2730;51.512;7.504;2023-12-07T03:14:17;33.47;;;12.07;;
5414;SDS011;2730;51.512;7.504;2023-12-07T03:16:44;36.13;;;11.73;;
5414;SDS011;2730;51.512;7.504;2023-12-07T03:19:12;47.15;;;14.07;;
5414;SDS011;2730;51.512;7.504;2023-12-07T03:21:39;33.83;;;13.00;;
5414;SDS011;2730;51.512;7.504;2023-12-07T03:24:06;31.08;;;12.35;;
5414;SDS011;2730;51.512;7.504;2023-12-07T03:26:33;31.08;;;10.90;;
5414;SDS011;2730;51.512;7.504;2023-12-07T03:29:00;30.42;;;12.48;;
5414;SDS011;2730;51.512;7.504;2023-12-07T03:31:27;35.70;;;12.50;;
5414;SDS011;2730;51.512;7.504;2023-12-07T03:33:54;32.40;;;11.85;;
5414;SDS011;2730;51.512;7.504;2023-12-07T03:36:23;42.20;;;14.15;;
5414;SDS011;2730;51.512;7.504;2023-12-07T03:38:49;33.78;;;11.68;;
5414;SDS011;2730;51.512;7.504;2023-12-07T03:41:16;33.47;;;12.45;;
5414;SDS011;2730;51.512;7.504;2023-12-07T03:43:43;24.58;;;10.55;;
5414;SDS011;2730;51.512;7.504;2023-12-07T03:46:10;35.33;;;13.00;;
5414;SDS011;2730;51.512;7.504;2023-12-07T03:48:37;39.88;;;12.70;;
5414;SDS011;2730;51.512;7.504;2023-12-07T03:51:04;34.47;;;11.55;;
5414;SDS011;2730;51.512;7.504;2023-12-07T03:53:32;37.45;;;12.68;;
5414;SDS011;2730;51.512;7.504;2023-12-07T03:55:59;33.65;;;12.95;;
5414;SDS011;2730;51.512;7.504;2023-12-07T03:58:25;28.92;;;11.15;;
5414;SDS011;2730;51.512;7.504;2023-12-07T04:00:52;39.58;;;11.48;;
5414;SDS011;2730;51.512;7.504;2023-12-07T04:03:19;32.80;;;13.40;;
5414;SDS011;2730;51.512;7.504;2023-12-07T04:05:46;36.17;;;12.13;;
5414;SDS011;2730;51.512;7.504;2023-12-07T04:08:12;32.88;;;10.95;;
5414;SDS011;2730;51.512;7.504;2023-12-07T04:10:40;35.78;;;12.30;;
5414;SDS011;2730;51.512;7.504;2023-12-07T04:13:07;32.42;;;12.13;;
5414;SDS011;2730;51.512;7.504;2023-12-07T04:15:34;39.13;;;12.55;;
5414;SDS011;2730;51.512;7.504;2023-12-07T04:18:01;38.88;;;12.95;;
5414;SDS011;2730;51.512;7.504;2023-12-07T04:20:28;36.50;;;12.15;;
5414;SDS011;2730;51.512;7.504;2023-12-07T04:22:54;39.67;;;12.95;;
5414;SDS011;2730;51.512;7.504;2023-12-07T04:25:21;37.33;;;11.77;;
5414;SDS011;2730;51.512;7.504;2023-12-07T04:27:49;48.33;;;14.02;;
5414;SDS011;2730;51.512;7.504;2023-12-07T04:30:16;35.42;;;13.80;;
5414;SDS011;2730;51.512;7.504;2023-12-07T04:32:43;42.30;;;14.27;;
5414;SDS011;2730;51.512;7.504;2023-12-07T04:35:09;30.75;;;12.15;;
5414;SDS011;2730;51.512;7.504;2023-12-07T04:37:36;36.05;;;13.25;;
5414;SDS011;2730;51.512;7.504;2023-12-07T04:40:04;43.75;;;13.50;;
5414;SDS011;2730;51.512;7.504;2023-12-07T04:42:31;39.50;;;13.85;;
5414;SDS011;2730;51.512;7.504;2023-12-07T04:44:59;46.22;;;13.90;;
5414;SDS011;2730;51.512;7.504;2023-12-07T04:47:26;39.97;;;13.27;;
5414;SDS011;2730;51.512;7.504;2023-12-07T04:49:53;40.47;;;14.35;;
5414;SDS011;2730;51.512;7.504;2023-12-07T04:52:19;46.90;;;13.70;;
5414;SDS011;2730;51.512;7.504;2023-12-07T04:54:46;33.88;;;11.55;;
5414;SDS011;2730;51.512;7.504;2023-12-07T04:57:13;40.28;;;14.75;;
5414;SDS011;2730;51.512;7.504;2023-12-07T04:59:40;34.83;;;12.50;;
5414;SDS011;2730;51.512;7.504;2023-12-07T05:02:13;45.30;;;13.90;;
5414;SDS011;2730;51.512;7.504;2023-12-07T05:04:39;43.35;;;13.32;;
5414;SDS011;2730;51.512;7.504;2023-12-07T05:07:06;43.03;;;13.65;;
5414;SDS011;2730;51.512;7.504;2023-12-07T05:09:33;43.53;;;13.23;;
5414;SDS011;2730;51.512;7.504;2023-12-07T05:12:00;38.05;;;13.65;;
5414;SDS011;2730;51.512;7.504;2023-12-07T05:14:26;38.60;;;13.45;;
5414;SDS011;2730;51.512;7.504;2023-12-07T05:16:53;43.15;;;14.23;;
5414;SDS011;2730;51.512;7.504;2023-12-07T05:19:22;44.00;;;14.90;;
5414;SDS011;2730;51.512;7.504;2023-12-07T05:21:49;41.65;;;14.30;;
5414;SDS011;2730;51.512;7.504;2023-12-07T05:24:16;35.00;;;12.45;;
5414;SDS011;2730;51.512;7.504;2023-12-07T05:26:43;37.60;;;12.90;;
5414;SDS011;2730;51.512;7.504;2023-12-07T05:29:11;36.22;;;13.57;;
5414;SDS011;2730;51.512;7.504;2023-12-07T05:31:38;43.03;;;13.35;;
5414;SDS011;2730;51.512;7.504;2023-12-07T05:34:05;32.60;;;13.23;;
5414;SDS011;2730;51.512;7.504;2023-12-07T05:36:33;46.05;;;15.05;;
5414;SDS011;2730;51.512;7.504;2023-12-07T05:38:59;39.00;;;13.40;;
5414;SDS011;2730;51.512;7.504;2023-12-07T05:41:27;44.00;;;13.85;;
5414;SDS011;2730;51.512;7.504;2023-12-07T05:43:53;30.75;;;12.55;;
5414;SDS011;2730;51.512;7.504;2023-12-07T05:46:20;35.85;;;11.70;;
5414;SDS011;2730;51.512;7.504;2023-12-07T05:48:47;41.25;;;11.07;;
5414;SDS011;2730;51.512;7.504;2023-12-07T05:51:14;37.97;;;11.45;;
5414;SDS011;2730;51.512;7.504;2023-12-07T05:53:43;36.85;;;12.75;;
5414;SDS011;2730;51.512;7.504;2023-12-07T05:56:10;48.45;;;12.60;;
5414;SDS011;2730;51.512;7.504;2023-12-07T05:58:37;38.53;;;12.38;;
5414;SDS011;2730;51.512;7.504;2023-12-07T06:01:04;34.95;;;12.05;;
5414;SDS011;2730;51.512;7.504;2023-12-07T06:03:32;41.45;;;12.05;;
5414;SDS011;2730;51.512;7.504;2023-12-07T06:06:00;42.95;;;12.68;;
5414;SDS011;2730;51.512;7.504;2023-12-07T06:08:29;34.10;;;10.65;;
5414;SDS011;2730;51.512;7.504;2023-12-07T06:10:57;41.30;;;14.00;;
5414;SDS011;2730;51.512;7.504;2023-12-07T06:13:23;32.72;;;12.65;;
5414;SDS011;2730;51.512;7.504;2023-12-07T06:15:50;26.50;;;9.95;;
5414;SDS011;2730;51.512;7.504;2023-12-07T06:18:17;33.40;;;11.25;;
5414;SDS011;2730;51.512;7.504;2023-12-07T06:20:43;36.63;;;13.25;;
5414;SDS011;2730;51.512;7.504;2023-12-07T06:23:10;33.72;;;12.35;;
5414;SDS011;2730;51.512;7.504;2023-12-07T06:25:37;31.48;;;11.50;;
5414;SDS011;2730;51.512;7.504;2023-12-07T06:28:06;34.30;;;13.00;;
5414;SDS011;2730;51.512;7.504;2023-12-07T06:30:33;37.60;;;12.68;;
5414;SDS011;2730;51.512;7.504;2023-12-07T06:33:00;37.90;;;12.45;;
5414;SDS011;2730;51.512;7.504;2023-12-07T06:35:29;29.33;;;11.68;;
5414;SDS011;2730;51.512;7.504;2023-12-07T06:37:56;32.13;;;11.70;;
5414;SDS011;2730;51.512;7.504;2023-12-07T06:40:23;27.17;;;11.30;;
5414;SDS011;2730;51.512;7.504;2023-12-07T06:42:50;30.52;;;10.68;;
5414;SDS011;2730;51.512;7.504;2023-12-07T06:45:18;28.98;;;11.48;;
5414;SDS011;2730;51.512;7.504;2023-12-07T06:47:45;26.20;;;11.88;;
5414;SDS011;2730;51.512;7.504;2023-12-07T06:50:11;30.90;;;10.80;;
5414;SDS011;2730;51.512;7.504;2023-12-07T06:52:38;41.60;;;12.02;;
5414;SDS011;2730;51.512;7.504;2023-12-07T06:55:06;37.33;;;11.57;;
5414;SDS011;2730;51.512;7.504;2023-12-07T06:57:35;29.92;;;10.30;;
5414;SDS011;2730;51.512;7.504;2023-12-07T07:00:02;28.35;;;11.90;;
5414;SDS011;2730;51.512;7.504;2023-12-07T07:02:36;33.60;;;11.15;;
5414;SDS011;2730;51.512;7.504;2023-12-07T07:05:04;30.00;;;11.63;;
5414;SDS011;2730;51.512;7.504;2023-12-07T07:07:31;30.90;;;10.77;;
5414;SDS011;2730;51.512;7.504;2023-12-07T07:09:58;32.53;;;12.50;;
5414;SDS011;2730;51.512;7.504;2023-12-07T07:12:25;32.05;;;13.32;;
5414;SDS011;2730;51.512;7.504;2023-12-07T07:14:52;35.22;;;12.07;;
5414;SDS011;2730;51.512;7.504;2023-12-07T07:17:19;37.08;;;13.45;;
5414;SDS011;2730;51.512;7.504;2023-12-07T07:19:47;37.97;;;11.75;;
5414;SDS011;2730;51.512;7.504;2023-12-07T07:22:14;32.70;;;12.90;;
5414;SDS011;2730;51.512;7.504;2023-12-07T07:24:41;35.58;;;12.95;;
5414;SDS011;2730;51.512;7.504;2023-12-07T07:27:08;33.08;;;11.82;;
5414;SDS011;2730;51.512;7.504;2023-12-07T07:29:34;28.48;;;10.68;;
5414;SDS011;2730;51.512;7.504;2023-12-07T07:32:01;33.53;;;11.80;;
5414;SDS011;2730;51.512;7.504;2023-12-07T07:34:28;36.75;;;12.27;;
5414;SDS011;2730;51.512;7.504;2023-12-07T07:36:56;30.83;;;12.18;;
5414;SDS011;2730;51.512;7.504;2023-12-07T07:39:22;37.55;;;12.23;;
5414;SDS011;2730;51.512;7.504;2023-12-07T07:41:49;34.40;;;12.00;;
5414;SDS011;2730;51.512;7.504;2023-12-07T07:44:16;28.58;;;10.73;;
5414;SDS011;2730;51.512;7.504;2023-12-07T07:46:43;37.17;;;13.43;;
5414;SDS011;2730;51.512;7.504;2023-12-07T07:49:09;31.02;;;11.90;;
5414;SDS011;2730;51.512;7.504;2023-12-07T07:51:36;31.27;;;11.80;;
5414;SDS011;2730;51.512;7.504;2023-12-07T07:54:05;28.02;;;11.30;;
5414;SDS011;2730;51.512;7.504;2023-12-07T07:56:31;28.95;;;10.18;;
5414;SDS011;2730;51.512;7.504;2023-12-07T07:58:58;30.10;;;12.15;;
5414;SDS011;2730;51.512;7.504;2023-12-07T08:01:25;35.80;;;11.75;;
5414;SDS011;2730;51.512;7.504;2023-12-07T08:03:52;31.98;;;11.43;;
5414;SDS011;2730;51.512;7.504;2023-12-07T08:06:19;37.13;;;12.65;;
5414;SDS011;2730;51.512;7.504;2023-12-07T08:08:46;31.20;;;11.50;;
5414;SDS011;2730;51.512;7.504;2023-12-07T08:11:15;32.22;;;11.35;;
5414;SDS011;2730;51.512;7.504;2023-12-07T08:13:42;37.88;;;11.20;;
5414;SDS011;2730;51.512;7.504;2023-12-07T08:16:09;37.20;;;12.38;;
5414;SDS011;2730;51.512;7.504;2023-12-07T08:18:35;34.05;;;11.57;;
5414;SDS011;2730;51.512;7.504;2023-12-07T08:21:02;42.10;;;12.52;;
5414;SDS011;2730;51.512;7.504;2023-12-07T08:23:32;36.13;;;12.80;;
5414;SDS011;2730;51.512;7.504;2023-12-07T08:25:58;31.15;;;12.00;;
5414;SDS011;2730;51.512;7.504;2023-12-07T08:28:26;25.27;;;9.65;;
5414;SDS011;2730;51.512;7.504;2023-12-07T08:30:53;40.20;;;12.93;;
5414;SDS011;2730;51.512;7.504;2023-12-07T08:33:20;36.10;;;12.32;;
5414;SDS011;2730;51.512;7.504;2023-12-07T08:35:47;39.78;;;12.95;;
5414;SDS011;2730;51.512;7.504;2023-12-07T08:38:19;40.45;;;11.73;;
5414;SDS011;2730;51.512;7.504;2023-12-07T08:40:47;41.25;;;11.80;;
5414;SDS011;2730;51.512;7.504;2023-12-07T08:43:13;38.10;;;13.25;;
5414;SDS011;2730;51.512;7.504;2023-12-07T08:45:41;32.47;;;12.63;;
5414;SDS011;2730;51.512;7.504;2023-12-07T08:48:08;29.55;;;12.57;;
5414;SDS011;2730;51.512;7.504;2023-12-07T08:50:35;39.70;;;13.27;;
5414;SDS011;2730;51.512;7.504;2023-12-07T08:53:01;38.38;;;13.77;;
5414;SDS011;2730;51.512;7.504;2023-12-07T08:55:28;39.05;;;13.80;;
5414;SDS011;2730;51.512;7.504;2023-12-07T08:57:55;32.53;;;13.00;;
5414;SDS011;2730;51.512;7.504;2023-12-07T09:00:22;32.05;;;12.70;;
5414;SDS011;2730;51.512;7.504;2023-12-07T09:02:52;33.42;;;11.98;;
5414;SDS011;2730;51.512;7.504;2023-12-07T09:05:18;38.90;;;11.65;;
5414;SDS011;2730;51.512;7.504;2023-12-07T09:07:45;28.70;;;11.70;;
5414;SDS011;2730;51.512;7.504;2023-12-07T09:10:12;35.35;;;12.38;;
5414;SDS011;2730;51.512;7.504;2023-12-07T09:12:39;40.90;;;14.15;;
5414;SDS011;2730;51.512;7.504;2023-12-07T09:15:06;38.50;;;12.80;;
5414;SDS011;2730;51.512;7.504;2023-12-07T09:17:34;32.92;;;13.25;;
5414;SDS011;2730;51.512;7.504;2023-12-07T09:20:05;27.00;;;12.80;;
5414;SDS011;2730;51.512;7.504;2023-12-07T09:22:36;25.95;;;11.40;;
5414;SDS011;2730;51.512;7.504;2023-12-07T09:25:04;25.30;;;10.68;;
5414;SDS011;2730;51.512;7.504;2023-12-07T09:27:32;25.95;;;10.15;;
5414;SDS011;2730;51.512;7.504;2023-12-07T09:30:00;22.33;;;11.18;;
5414;SDS011;2730;51.512;7.504;2023-12-07T09:32:26;26.98;;;10.52;;
5414;SDS011;2730;51.512;7.504;2023-12-07T09:34:53;20.30;;;8.70;;
5414;SDS011;2730;51.512;7.504;2023-12-07T09:37:21;17.58;;;8.85;;
5414;SDS011;2730;51.512;7.504;2023-12-07T09:39:51;21.55;;;10.30;;
5414;SDS011;2730;51.512;7.504;2023-12-07T09:42:18;13.48;;;8.27;;
5414;SDS011;2730;51.512;7.504;2023-12-07T09:44:44;18.38;;;8.25;;
5414;SDS011;2730;51.512;7.504;2023-12-07T09:47:11;21.88;;;8.90;;
5414;SDS011;2730;51.512;7.504;2023-12-07T09:49:39;13.15;;;7.88;;
5414;SDS011;2730;51.512;7.504;2023-12-07T09:52:06;17.75;;;9.10;;
5414;SDS011;2730;51.512;7.504;2023-12-07T09:54:35;12.27;;;7.50;;
5414;SDS011;2730;51.512;7.504;2023-12-07T09:57:06;16.92;;;7.72;;
5414;SDS011;2730;51.512;7.504;2023-12-07T09:59:34;21.25;;;7.82;;
5414;SDS011;2730;51.512;7.504;2023-12-07T10:02:01;14.57;;;7.15;;
5414;SDS011;2730;51.512;7.504;2023-12-07T10:04:28;13.77;;;6.93;;
5414;SDS011;2730;51.512;7.504;2023-12-07T10:06:56;21.00;;;7.43;;
5414;SDS011;2730;51.512;7.504;2023-12-07T10:09:23;13.30;;;6.18;;
5414;SDS011;2730;51.512;7.504;2023-12-07T10:11:51;11.10;;;6.50;;
5414;SDS011;2730;51.512;7.504;2023-12-07T10:14:28;9.23;;;5.78;;
5414;SDS011;2730;51.512;7.504;2023-12-07T10:16:55;14.98;;;7.38;;
5414;SDS011;2730;51.512;7.504;2023-12-07T10:19:23;19.60;;;7.47;;
5414;SDS011;2730;51.512;7.504;2023-12-07T10:21:50;15.43;;;6.43;;
5414;SDS011;2730;51.512;7.504;2023-12-07T10:24:19;11.90;;;7.03;;
5414;SDS011;2730;51.512;7.504;2023-12-07T10:26:47;12.48;;;5.75;;
5414;SDS011;2730;51.512;7.504;2023-12-07T10:29:18;10.77;;;6.32;;
5414;SDS011;2730;51.512;7.504;2023-12-07T10:31:46;8.50;;;5.18;;
5414;SDS011;2730;51.512;7.504;2023-12-07T10:34:13;12.23;;;5.57;;
5414;SDS011;2730;51.512;7.504;2023-12-07T10:36:44;9.45;;;5.68;;
5414;SDS011;2730;51.512;7.504;2023-12-07T10:39:12;10.88;;;5.05;;
5414;SDS011;2730;51.512;7.504;2023-12-07T10:41:43;10.30;;;5.18;;
5414;SDS011;2730;51.512;7.504;2023-12-07T10:44:18;14.90;;;5.50;;
5414;SDS011;2730;51.512;7.504;2023-12-07T10:46:47;14.18;;;5.10;;
5414;SDS011;2730;51.512;7.504;2023-12-07T10:49:15;8.50;;;5.95;;
5414;SDS011;2730;51.512;7.504;2023-12-07T10:51:49;6.70;;;5.40;;
5414;SDS011;2730;51.512;7.504;2023-12-07T10:54:21;10.38;;;6.30;;
5414;SDS011;2730;51.512;7.504;2023-12-07T10:56:49;8.00;;;5.20;;
5414;SDS011;2730;51.512;7.504;2023-12-07T10:59:16;8.55;;;4.63;;
5414;SDS011;2730;51.512;7.504;2023-12-07T11:01:45;10.20;;;5.50;;
5414;SDS011;2730;51.512;7.504;2023-12-07T11:04:14;11.45;;;4.80;;
5414;SDS011;2730;51.512;7.504;2023-12-07T11:06:41;8.65;;;4.80;;
5414;SDS011;2730;51.512;7.504;2023-12-07T11:09:16;6.53;;;4.65;;
5414;SDS011;2730;51.512;7.504;2023-12-07T11:11:48;11.75;;;5.25;;
5414;SDS011;2730;51.512;7.504;2023-12-07T11:14:19;9.73;;;5.18;;
5414;SDS011;2730;51.512;7.504;2023-12-07T11:16:47;9.68;;;4.70;;
5414;SDS011;2730;51.512;7.504;2023-12-07T11:22:12;6.60;;;4.82;;
5414;SDS011;2730;51.512;7.504;2023-12-07T11:27:45;9.88;;;4.32;;
5414;SDS011;2730;51.512;7.504;2023-12-07T11:30:13;7.95;;;4.38;;
5414;SDS011;2730;51.512;7.504;2023-12-07T11:32:42;8.93;;;4.63;;
5414;SDS011;2730;51.512;7.504;2023-12-07T11:35:13;10.35;;;4.45;;
5414;SDS011;2730;51.512;7.504;2023-12-07T11:40:31;5.88;;;4.07;;
5414;SDS011;2730;51.512;7.504;2023-12-07T11:43:00;6.22;;;3.70;;
5414;SDS011;2730;51.512;7.504;2023-12-07T11:45:39;7.10;;;4.80;;
5414;SDS011;2730;51.512;7.504;2023-12-07T11:48:10;13.30;;;5.43;;
5414;SDS011;2730;51.512;7.504;2023-12-07T11:53:23;10.15;;;5.57;;
5414;SDS011;2730;51.512;7.504;2023-12-07T11:55:51;8.18;;;4.63;;
5414;SDS011;2730;51.512;7.504;2023-12-07T11:58:18;11.52;;;4.95;;
5414;SDS011;2730;51.512;7.504;2023-12-07T12:00:47;9.80;;;4.40;;
5414;SDS011;2730;51.512;7.504;2023-12-07T12:03:15;9.43;;;4.82;;
5414;SDS011;2730;51.512;7.504;2023-12-07T12:05:42;7.90;;;4.32;;
5414;SDS011;2730;51.512;7.504;2023-12-07T12:08:09;13.52;;;5.47;;
5414;SDS011;2730;51.512;7.504;2023-12-07T12:10:36;6.43;;;4.82;;
5414;SDS011;2730;51.512;7.504;2023-12-07T12:13:03;8.60;;;5.03;;
5414;SDS011;2730;51.512;7.504;2023-12-07T12:15:30;7.88;;;5.30;;
5414;SDS011;2730;51.512;7.504;2023-12-07T12:17:58;8.88;;;4.63;;
5414;SDS011;2730;51.512;7.504;2023-12-07T12:20:27;7.60;;;4.50;;
5414;SDS011;2730;51.512;7.504;2023-12-07T12:22:54;8.43;;;4.15;;
5414;SDS011;2730;51.512;7.504;2023-12-07T12:25:21;10.45;;;5.43;;
5414;SDS011;2730;51.512;7.504;2023-12-07T12:27:50;7.32;;;4.28;;
5414;SDS011;2730;51.512;7.504;2023-12-07T12:30:19;11.48;;;4.40;;
5414;SDS011;2730;51.512;7.504;2023-12-07T12:32:47;7.60;;;4.18;;
5414;SDS011;2730;51.512;7.504;2023-12-07T12:35:15;10.43;;;4.93;;
5414;SDS011;2730;51.512;7.504;2023-12-07T12:37:44;9.85;;;4.35;;
5414;SDS011;2730;51.512;7.504;2023-12-07T12:40:12;11.65;;;5.50;;
5414;SDS011;2730;51.512;7.504;2023-12-07T12:42:42;13.05;;;5.00;;
5414;SDS011;2730;51.512;7.504;2023-12-07T12:45:09;7.60;;;4.03;;
5414;SDS011;2730;51.512;7.504;2023-12-07T12:47:37;4.13;;;3.50;;
5414;SDS011;2730;51.512;7.504;2023-12-07T12:50:04;6.47;;;4.15;;
5414;SDS011;2730;51.512;7.504;2023-12-07T12:52:32;10.48;;;4.57;;
5414;SDS011;2730;51.512;7.504;2023-12-07T12:55:01;6.05;;;3.88;;
5414;SDS011;2730;51.512;7.504;2023-12-07T12:57:28;7.47;;;4.28;;
5414;SDS011;2730;51.512;7.504;2023-12-07T12:59:57;5.75;;;4.32;;
5414;SDS011;2730;51.512;7.504;2023-12-07T13:02:26;6.20;;;3.50;;
5414;SDS011;2730;51.512;7.504;2023-12-07T13:04:53;7.13;;;4.25;;
5414;SDS011;2730;51.512;7.504;2023-12-07T13:07:21;7.38;;;3.42;;
5414;SDS011;2730;51.512;7.504;2023-12-07T13:09:49;5.80;;;3.95;;
5414;SDS011;2730;51.512;7.504;2023-12-07T13:12:17;6.60;;;3.72;;
5414;SDS011;2730;51.512;7.504;2023-12-07T13:14:44;5.22;;;3.90;;
5414;SDS011;2730;51.512;7.504;2023-12-07T13:17:11;7.82;;;4.53;;
5414;SDS011;2730;51.512;7.504;2023-12-07T13:19:38;5.75;;;3.85;;
5414;SDS011;2730;51.512;7.504;2023-12-07T13:22:05;7.80;;;3.95;;
5414;SDS011;2730;51.512;7.504;2023-12-07T13:24:32;6.50;;;3.50;;
5414;SDS011;2730;51.512;7.504;2023-12-07T13:26:58;10.70;;;4.65;;
5414;SDS011;2730;51.512;7.504;2023-12-07T13:29:28;6.78;;;4.50;;
5414;SDS011;2730;51.512;7.504;2023-12-07T13:31:54;11.02;;;5.38;;
5414;SDS011;2730;51.512;7.504;2023-12-07T13:34:23;8.18;;;5.32;;
5414;SDS011;2730;51.512;7.504;2023-12-07T13:36:51;6.00;;;4.70;;
5414;SDS011;2730;51.512;7.504;2023-12-07T13:39:17;13.38;;;5.18;;
5414;SDS011;2730;51.512;7.504;2023-12-07T13:41:45;7.97;;;4.53;;
5414;SDS011;2730;51.512;7.504;2023-12-07T13:44:14;6.03;;;3.65;;
5414;SDS011;2730;51.512;7.504;2023-12-07T13:46:43;4.88;;;3.45;;
5414;SDS011;2730;51.512;7.504;2023-12-07T13:49:10;5.85;;;4.15;;
5414;SDS011;2730;51.512;7.504;2023-12-07T13:51:39;8.38;;;4.50;;
5414;SDS011;2730;51.512;7.504;2023-12-07T13:54:05;7.90;;;3.95;;
5414;SDS011;2730;51.512;7.504;2023-12-07T13:56:33;7.90;;;4.45;;
5414;SDS011;2730;51.512;7.504;2023-12-07T13:58:59;7.88;;;5.18;;
5414;SDS011;2730;51.512;7.504;2023-12-07T14:01:27;8.52;;;4.00;;
5414;SDS011;2730;51.512;7.504;2023-12-07T14:03:57;11.60;;;5.03;;
5414;SDS011;2730;51.512;7.504;2023-12-07T14:06:24;7.57;;;5.28;;
5414;SDS011;2730;51.512;7.504;2023-12-07T14:08:52;6.93;;;4.78;;
5414;SDS011;2730;51.512;7.504;2023-12-07T14:11:19;8.20;;;4.22;;
5414;SDS011;2730;51.512;7.504;2023-12-07T14:13:45;4.68;;;4.03;;
5414;SDS011;2730;51.512;7.504;2023-12-07T14:16:13;8.38;;;4.45;;
5414;SDS011;2730;51.512;7.504;2023-12-07T14:18:40;11.90;;;4.82;;
5414;SDS011;2730;51.512;7.504;2023-12-07T14:21:08;6.93;;;3.90;;
5414;SDS011;2730;51.512;7.504;2023-12-07T14:23:36;8.10;;;4.45;;
5414;SDS011;2730;51.512;7.504;2023-12-07T14:26:04;8.32;;;4.80;;
5414;SDS011;2730;51.512;7.504;2023-12-07T14:28:31;6.72;;;4.30;;
5414;SDS011;2730;51.512;7.504;2023-12-07T14:30:59;10.20;;;5.20;;
5414;SDS011;2730;51.512;7.504;2023-12-07T14:33:26;8.02;;;4.03;;
5414;SDS011;2730;51.512;7.504;2023-12-07T14:35:52;8.02;;;4.18;;
5414;SDS011;2730;51.512;7.504;2023-12-07T14:38:20;6.35;;;3.95;;
5414;SDS011;2730;51.512;7.504;2023-12-07T14:40:49;21.23;;;5.40;;
5414;SDS011;2730;51.512;7.504;2023-12-07T14:43:15;7.68;;;4.72;;
5414;SDS011;2730;51.512;7.504;2023-12-07T14:45:42;8.25;;;4.35;;
5414;SDS011;2730;51.512;7.504;2023-12-07T14:48:09;7.45;;;4.97;;
5414;SDS011;2730;51.512;7.504;2023-12-07T14:50:37;5.88;;;3.70;;
5414;SDS011;2730;51.512;7.504;2023-12-07T14:53:04;7.28;;;3.50;;
5414;SDS011;2730;51.512;7.504;2023-12-07T14:55:32;7.88;;;4.55;;
5414;SDS011;2730;51.512;7.504;2023-12-07T14:57:59;9.70;;;4.45;;
5414;SDS011;2730;51.512;7.504;2023-12-07T15:00:26;9.85;;;3.67;;
5414;SDS011;2730;51.512;7.504;2023-12-07T15:02:53;8.07;;;4.00;;
5414;SDS011;2730;51.512;7.504;2023-12-07T15:05:21;6.05;;;3.65;;
5414;SDS011;2730;51.512;7.504;2023-12-07T15:07:48;6.20;;;4.10;;
5414;SDS011;2730;51.512;7.504;2023-12-07T15:10:16;9.57;;;3.63;;